createdAt,value
2023-02-26T00:02:38.000Z,-3.34
2023-02-26T00:07:32.000Z,-3.32
2023-02-26T00:12:25.000Z,-3.04
2023-02-26T00:17:20.000Z,-2.95
2023-02-26T00:22:11.000Z,-2.7
2023-02-26T00:27:04.000Z,-2.56
2023-02-26T00:31:58.000Z,-2.63
2023-02-26T00:36:52.000Z,-2.73
2023-02-26T00:41:46.000Z,-2.8
2023-02-26T00:46:41.000Z,-2.66
2023-02-26T00:51:35.000Z,-2.54
2023-02-26T00:56:29.000Z,-2.44
2023-02-26T01:01:23.000Z,-2.36
2023-02-26T01:06:18.000Z,-2.35
2023-02-26T01:11:12.000Z,-2.39
2023-02-26T01:16:06.000Z,-2.41
2023-02-26T01:21:00.000Z,-2.6
2023-02-26T01:25:53.000Z,-2.76
2023-02-26T01:30:50.000Z,-2.74
2023-02-26T01:35:42.000Z,-2.88
2023-02-26T01:40:36.000Z,-2.85
2023-02-26T01:45:30.000Z,-2.86
2023-02-26T01:50:23.000Z,-2.76
2023-02-26T01:55:18.000Z,-2.5
2023-02-26T02:00:12.000Z,-2.28
2023-02-26T02:05:04.000Z,-2.16
2023-02-26T02:09:58.000Z,-2.18
2023-02-26T02:14:51.000Z,-2.22
2023-02-26T02:19:46.000Z,-2.19
2023-02-26T02:24:39.000Z,-2.2
2023-02-26T02:29:32.000Z,-2.09
2023-02-26T02:34:26.000Z,-2.12
2023-02-26T02:39:20.000Z,-2.21
2023-02-26T02:44:13.000Z,-2.29
2023-02-26T02:49:08.000Z,-2.38
2023-02-26T02:54:02.000Z,-2.49
2023-02-26T02:58:56.000Z,-2.6
2023-02-26T03:03:50.000Z,-2.66
2023-02-26T03:08:44.000Z,-2.66
2023-02-26T03:13:38.000Z,-2.66
2023-02-26T03:18:29.000Z,-2.63
2023-02-26T03:23:23.000Z,-2.57
2023-02-26T03:28:17.000Z,-2.47
2023-02-26T03:33:12.000Z,-2.38
2023-02-26T03:38:06.000Z,-2.4
2023-02-26T03:43:00.000Z,-2.43
2023-02-26T03:47:54.000Z,-2.56
2023-02-26T03:52:48.000Z,-2.62
2023-02-26T03:57:40.000Z,-2.73
2023-02-26T04:02:33.000Z,-2.84
2023-02-26T04:07:27.000Z,-2.93
2023-02-26T04:12:24.000Z,-3.03
2023-02-26T04:17:12.000Z,-3.08
2023-02-26T04:22:06.000Z,-3.16
2023-02-26T04:27:00.000Z,-3.12
2023-02-26T04:31:54.000Z,-3.01
2023-02-26T04:36:47.000Z,-3.12
2023-02-26T04:41:41.000Z,-3.21
2023-02-26T04:46:36.000Z,-3.28
2023-02-26T04:51:29.000Z,-3.35
2023-02-26T04:56:21.000Z,-3.48
2023-02-26T05:01:15.000Z,-3.54
2023-02-26T05:06:10.000Z,-3.65
2023-02-26T05:11:03.000Z,-3.59
2023-02-26T05:15:57.000Z,-3.57
2023-02-26T05:20:50.000Z,-3.56
2023-02-26T05:25:44.000Z,-3.59
2023-02-26T05:30:38.000Z,-3.72
2023-02-26T05:35:31.000Z,-3.79
2023-02-26T05:40:25.000Z,-3.9
2023-02-26T05:45:20.000Z,-4
2023-02-26T05:50:12.000Z,-4.04
2023-02-26T05:55:05.000Z,-4.11
2023-02-26T06:00:02.000Z,-4.27
2023-02-26T06:04:53.000Z,-4.24
2023-02-26T06:09:47.000Z,-4.31
2023-02-26T06:14:40.000Z,-4.36
2023-02-26T06:19:34.000Z,-4.26
2023-02-26T06:24:28.000Z,-3.97
2023-02-26T06:29:22.000Z,-3.83
2023-02-26T06:34:16.000Z,-3.55
2023-02-26T06:39:10.000Z,-3.53
2023-02-26T06:44:03.000Z,-3.4
2023-02-26T06:48:58.000Z,-3.27
2023-02-26T06:53:52.000Z,-3.2
2023-02-26T06:58:46.000Z,-2.9
2023-02-26T07:03:40.000Z,-1.96
2023-02-26T07:08:34.000Z,-2.36
2023-02-26T07:13:28.000Z,-2.78
2023-02-26T07:18:22.000Z,-2.54
2023-02-26T07:23:16.000Z,-2.35
2023-02-26T07:28:10.000Z,-2.27
2023-02-26T07:33:04.000Z,-2.13
2023-02-26T07:37:59.000Z,-2.04
2023-02-26T07:42:53.000Z,-2.01
2023-02-26T07:47:47.000Z,-1.93
2023-02-26T07:52:41.000Z,-0.92
2023-02-26T07:57:36.000Z,-0.88
2023-02-26T08:02:30.000Z,-1.06
2023-02-26T08:07:23.000Z,-1.07
2023-02-26T08:12:17.000Z,-0.91
2023-02-26T08:17:11.000Z,-0.77
2023-02-26T08:22:06.000Z,-0.57
2023-02-26T08:27:00.000Z,-0.62
2023-02-26T08:31:55.000Z,-0.27
2023-02-26T08:36:49.000Z,-0.11
2023-02-26T08:41:44.000Z,-0.15
2023-02-26T08:46:38.000Z,0.07
2023-02-26T08:51:32.000Z,0.25
2023-02-26T08:56:29.000Z,0.96
2023-02-26T09:01:20.000Z,1.24
2023-02-26T09:06:14.000Z,0.95
2023-02-26T09:11:09.000Z,1.2
2023-02-26T09:16:05.000Z,1.65
2023-02-26T09:21:00.000Z,1.7
2023-02-26T09:25:55.000Z,4.15
2023-02-26T09:30:50.000Z,5.79
2023-02-26T09:35:46.000Z,5.13
2023-02-26T09:40:38.000Z,3.07
2023-02-26T09:45:31.000Z,6.13
2023-02-26T09:50:26.000Z,4.37
2023-02-26T09:55:21.000Z,7.46
2023-02-26T10:00:17.000Z,7.97
2023-02-26T10:05:12.000Z,8.1
2023-02-26T10:10:08.000Z,8.98
2023-02-26T10:15:03.000Z,9.17
2023-02-26T10:19:57.000Z,8.56
2023-02-26T10:24:51.000Z,10.53
2023-02-26T10:29:45.000Z,8.22
2023-02-26T10:34:39.000Z,4.55
2023-02-26T10:39:31.000Z,3.77
2023-02-26T10:44:24.000Z,4.19
2023-02-26T10:49:18.000Z,3.85
2023-02-26T10:54:10.000Z,3.7
2023-02-26T10:59:04.000Z,3.6
2023-02-26T11:03:58.000Z,3.19
2023-02-26T11:08:52.000Z,3.64
2023-02-26T11:13:46.000Z,3.14
2023-02-26T11:18:40.000Z,3.05
2023-02-26T11:23:35.000Z,2.6
2023-02-26T11:28:29.000Z,2.69
2023-02-26T11:33:23.000Z,2.84
2023-02-26T11:38:17.000Z,3.06
2023-02-26T11:43:11.000Z,3.2
2023-02-26T11:48:05.000Z,3.35
2023-02-26T11:52:58.000Z,3.39
2023-02-26T11:57:52.000Z,3.38
2023-02-26T12:02:47.000Z,3.36
2023-02-26T12:07:41.000Z,3.24
2023-02-26T12:12:38.000Z,2.88
2023-02-26T12:17:28.000Z,3.14
2023-02-26T12:22:22.000Z,3.86
2023-02-26T12:27:16.000Z,3.37
2023-02-26T12:32:10.000Z,3.05
2023-02-26T12:37:03.000Z,3.72
2023-02-26T12:41:58.000Z,3.87
2023-02-26T12:46:52.000Z,4.42
2023-02-26T12:51:46.000Z,3.64
2023-02-26T12:56:40.000Z,3.61
2023-02-26T13:01:34.000Z,3.41
2023-02-26T13:06:27.000Z,3.78
2023-02-26T13:11:21.000Z,3.33
2023-02-26T13:16:14.000Z,3.08
2023-02-26T13:21:09.000Z,2.46
2023-02-26T13:26:02.000Z,3.21
2023-02-26T13:30:57.000Z,3.05
2023-02-26T13:35:51.000Z,2.84
2023-02-26T13:40:45.000Z,3.12
2023-02-26T13:45:36.000Z,2.89
2023-02-26T13:50:30.000Z,2.87
2023-02-26T13:55:25.000Z,3.07
2023-02-26T14:00:19.000Z,8.33
2023-02-26T14:05:15.000Z,7.06
2023-02-26T14:10:10.000Z,12.81
2023-02-26T14:15:07.000Z,10.68
2023-02-26T14:20:02.000Z,11.19
2023-02-26T14:24:57.000Z,10.5
2023-02-26T14:29:52.000Z,10.07
2023-02-26T14:34:47.000Z,8.45
2023-02-26T14:39:41.000Z,5.8
2023-02-26T14:44:34.000Z,4.81
2023-02-26T14:49:26.000Z,4.26
2023-02-26T14:54:19.000Z,5.74
2023-02-26T14:59:14.000Z,4.51
2023-02-26T15:04:07.000Z,5.52
2023-02-26T15:09:01.000Z,4.7
2023-02-26T15:13:55.000Z,4.17
2023-02-26T15:18:49.000Z,4.42
2023-02-26T15:23:43.000Z,4.97
2023-02-26T15:28:37.000Z,5.56
2023-02-26T15:33:32.000Z,3.55
2023-02-26T15:38:26.000Z,3.25
2023-02-26T15:43:19.000Z,3.11
2023-02-26T15:48:12.000Z,3.05
2023-02-26T15:53:06.000Z,3.1
2023-02-26T15:58:00.000Z,4.88
2023-02-26T16:02:55.000Z,5.27
2023-02-26T16:07:50.000Z,4.6
2023-02-26T16:12:44.000Z,3.14
2023-02-26T16:17:36.000Z,2.55
2023-02-26T16:22:30.000Z,2.04
2023-02-26T16:27:23.000Z,5.41
2023-02-26T16:32:17.000Z,5.45
2023-02-26T16:37:12.000Z,2.84
2023-02-26T19:04:20.000Z,-0.85
2023-02-26T19:09:14.000Z,-0.91
2023-02-26T19:14:08.000Z,-0.97
2023-02-26T19:19:02.000Z,-0.97
2023-02-26T19:23:56.000Z,-0.99
2023-02-26T19:28:49.000Z,-0.99
2023-02-26T19:33:43.000Z,-1.11
2023-02-26T19:38:35.000Z,-1.21
2023-02-26T19:43:29.000Z,-1.3
2023-02-26T19:48:22.000Z,-1.36
2023-02-26T19:53:16.000Z,-1.32
2023-02-26T19:58:09.000Z,-1.36
2023-02-26T20:03:03.000Z,-1.47
2023-02-26T20:07:56.000Z,-1.66
2023-02-26T20:12:50.000Z,-1.68
2023-02-26T20:17:41.000Z,-1.84
2023-02-26T20:22:35.000Z,-1.83
2023-02-26T20:27:28.000Z,-1.74
2023-02-26T20:32:21.000Z,-1.82
2023-02-26T20:37:14.000Z,-1.83
2023-02-26T20:42:08.000Z,-1.96
2023-02-26T20:47:02.000Z,-2.12
2023-02-26T20:51:56.000Z,-2.15
2023-02-26T20:56:50.000Z,-2.1
2023-02-26T21:01:44.000Z,-2.16
2023-02-26T21:06:38.000Z,-2.25
2023-02-26T21:11:32.000Z,-2.35
2023-02-26T21:16:26.000Z,-2.37
2023-02-26T21:21:20.000Z,-2.35
2023-02-26T21:26:13.000Z,-2.3
2023-02-26T21:31:10.000Z,-2.4
2023-02-26T21:35:58.000Z,-2.6
2023-02-26T21:40:52.000Z,-2.76
2023-02-26T21:45:44.000Z,-2.96
2023-02-26T21:50:37.000Z,-2.92
2023-02-26T21:55:31.000Z,-3.04
2023-02-26T22:00:25.000Z,-3.03
2023-02-26T22:05:18.000Z,-3.08
2023-02-26T22:10:12.000Z,-3.18
2023-02-26T22:15:06.000Z,-3.28
2023-02-26T22:20:00.000Z,-3.07
2023-02-26T22:24:53.000Z,-3.07
2023-02-26T22:29:45.000Z,-3.04
2023-02-26T22:34:39.000Z,-3.29
2023-02-26T22:39:33.000Z,-3.32
2023-02-26T22:44:27.000Z,-3.15
2023-02-26T22:49:20.000Z,-3.1
2023-02-26T22:54:12.000Z,-2.89
2023-02-26T22:59:06.000Z,-2.94
2023-02-26T23:03:57.000Z,-3
2023-02-26T23:08:51.000Z,-3.08
2023-02-26T23:13:44.000Z,-3.31
2023-02-26T23:18:37.000Z,-3.48
2023-02-26T23:23:31.000Z,-3.47
2023-02-26T23:28:25.000Z,-3.42
2023-02-26T23:33:19.000Z,-3.42
2023-02-26T23:38:14.000Z,-3.18
2023-02-26T23:43:07.000Z,-3.11
2023-02-26T23:48:02.000Z,-3.33
2023-02-26T23:52:56.000Z,-3.3
2023-02-26T23:57:50.000Z,-3.25
